Latest Weather Observations for Mangrove Mountain

IDN60901

Issued at 6:02 pm EST Saturday 5 September 2026 (issued every 10 minutes, with the page automatically refreshed every 10 minutes)

About weather observations | Map of Sydney area stations | Latest observations for Sydney area | Other Formats
Station Details ID: 061375 Name: MANGROVE MOUNTAIN AWS Lat: -33.29 Lon: 151.21 Height: 305.0 m
Data from the previous 72 hours. | See also: Recent months at Mangrove Mountain
Date/Time
EST
Temp
°C
App
Temp
°C
Dew
Point
°C
Rel
Hum
%
Delta-T
°C
Wind Press
QNH
hPa
Press
MSL
hPa
Rain since
9am
mm
Dir  Spd
km/h
Gust
km/h
Spd
kts
Gust
kts
05/06:00pm 19.7 18.1 12.7 64 4.0 WNW 13 26 7 14 - - 0.4
05/05:30pm 21.2 18.1 12.1 56 5.2 W 20 44 11 24 - - 0.2
05/05:10pm 21.9 17.9 11.9 53 5.7 W 24 56 13 30 - - 0.2
05/05:04pm 21.5 17.7 12.4 56 5.2 W 24 46 13 25 - - 0.2
05/05:00pm 21.3 16.7 12.2 56 5.2 W 28 65 15 35 - - 0.2
05/04:54pm 23.2 18.6 10.9 46 6.9 W 26 65 14 35 - - 0.0
05/04:30pm 27.4 25.2 7.8 29 10.7 NW 9 20 5 11 - - 0.0
05/04:00pm 29.0 26.2 8.7 28 11.3 NW 13 35 7 19 - - 0.0
05/03:30pm 28.9 25.2 8.0 27 11.5 NW 17 37 9 20 - - 0.0
05/03:19pm 29.4 24.7 7.9 26 11.9 NW 22 41 12 22 - - 0.0
05/03:09pm 29.8 25.6 8.2 26 12.0 NW 20 43 11 23 - - 0.0
05/03:00pm 30.3 27.5 8.7 26 12.1 NW 13 24 7 13 - - 0.0
05/02:30pm 29.9 26.2 9.4 28 11.6 NW 19 39 10 21 - - 0.0
05/02:00pm 28.8 24.8 9.0 29 11.1 NNW 20 37 11 20 - - 0.0
05/01:30pm 28.4 24.3 8.7 29 11.0 NNW 20 43 11 23 - - 0.0
05/01:00pm 28.1 24.9 8.4 29 10.9 N 15 33 8 18 - - 0.0
05/12:30pm 27.9 25.9 8.7 30 10.7 N 9 19 5 10 - - 0.0
05/12:00pm 26.4 22.7 7.9 31 10.0 NNW 17 24 9 13 - - 0.0
05/11:30am 25.6 22.2 7.7 32 9.6 NNW 15 26 8 14 - - 0.0
05/11:00am 24.6 22.4 9.3 38 8.4 NNW 11 20 6 11 - - 0.0
05/10:30am 23.7 20.7 7.8 36 8.5 NNW 13 20 7 11 - - 0.0
05/10:00am 23.0 21.1 9.0 41 7.6 NNW 9 19 5 10 - - 0.0
05/09:30am 21.4 19.4 8.7 44 6.8 NNW 9 15 5 8 - - 0.0
05/09:00am 20.3 18.3 8.6 47 6.2 NNW 9 20 5 11 - - 0.0
05/08:30am 19.2 17.0 7.9 48 5.9 NW 9 15 5 8 - - 0.0
05/08:00am 18.1 16.5 7.8 51 5.3 NNW 6 13 3 7 - - 0.0
05/07:30am 16.6 14.6 7.3 54 4.7 NNW 7 15 4 8 - - 0.0
05/07:00am 12.8 11.4 7.3 69 2.7 NW 4 7 2 4 - - 0.0
05/06:30am 10.8 9.2 6.4 74 2.1 NNW 4 6 2 3 - - 0.0
05/06:00am 10.2 8.6 6.2 76 1.9 WNW 4 6 2 3 - - 0.0
05/05:30am 11.4 9.7 6.1 70 2.5 NW 4 7 2 4 - - 0.0
05/05:00am 11.0 9.1 6.9 76 2.0 NW 6 7 3 4 - - 0.0
05/04:30am 11.0 9.6 7.3 78 1.8 NW 4 7 2 4 - - 0.0
05/04:00am 10.8 9.5 7.7 81 1.5 NW 4 6 2 3 - - 0.0
05/03:30am 10.7 9.4 7.6 81 1.5 NW 4 7 2 4 - - 0.0
05/03:00am 10.6 10.0 7.5 81 1.5 CALM 0 2 0 1 - - 0.0
05/02:30am 10.8 9.9 7.9 82 1.4 NW 2 4 1 2 - - 0.0
05/02:00am 10.6 9.8 8.0 84 1.3 NNW 2 4 1 2 - - 0.0
05/01:30am 10.5 10.1 8.1 85 1.2 CALM 0 0 0 0 - - 0.0
05/01:00am 10.3 9.8 7.9 85 1.2 CALM 0 0 0 0 - - 0.0
05/12:30am 10.5 10.1 8.4 87 1.0 CALM 0 0 0 0 - - 0.0
05/12:00am 10.5 10.2 8.8 89 0.9 CALM 0 0 0 0 - - 0.0
 
Date/Time
EST
Temp
°C
App
Temp
°C
Dew
Point
°C
Rel
Hum
%
Delta-T
°C
Wind Press
QNH
hPa
Press
MSL
hPa
Rain since
9am
mm
Dir  Spd
km/h
Gust
km/h
Spd
kts
Gust
kts
04/11:30pm 11.0 10.4 9.1 88 1.0 NW 2 2 1 1 - - 0.0
04/11:00pm 11.1 10.2 9.2 88 1.0 W 4 6 2 3 - - 0.0
04/10:30pm 11.0 10.1 9.4 90 0.8 WNW 4 7 2 4 - - 0.0
04/10:00pm 10.8 10.3 9.2 90 0.8 NW 2 4 1 2 - - 0.0
04/09:30pm 11.0 10.6 9.6 91 0.7 NNW 2 4 1 2 - - 0.0
04/09:00pm 11.0 10.9 9.4 90 0.8 CALM 0 2 0 1 - - 0.0
04/08:30pm 11.1 11.0 9.4 89 0.9 CALM 0 0 0 0 - - 0.0
04/08:00pm 11.1 10.8 8.5 84 1.3 CALM 0 0 0 0 - - 0.0
04/07:30pm 13.0 12.1 9.3 78 1.9 E 4 6 2 3 - - 0.0
04/07:00pm 13.9 12.7 9.7 76 2.2 ENE 6 9 3 5 - - 0.0
04/06:30pm 14.4 13.6 9.6 73 2.5 E 4 9 2 5 - - 0.0
04/06:00pm 15.5 14.4 9.8 69 3.0 ENE 6 11 3 6 - - 0.0
04/05:30pm 16.5 15.2 9.9 65 3.5 ENE 7 13 4 7 - - 0.0
04/05:00pm 18.0 16.7 9.9 59 4.4 ENE 7 13 4 7 - - 0.0
04/04:30pm 19.4 17.5 9.0 51 5.5 E 9 17 5 9 - - 0.0
04/04:00pm 23.0 20.9 5.9 33 8.8 N 6 13 3 7 - - 0.0
04/03:30pm 22.9 20.4 4.9 31 9.1 NNE 7 15 4 8 - - 0.0
04/03:00pm 23.3 21.6 5.7 32 9.0 NNE 4 9 2 5 - - 0.0
04/02:30pm 22.4 20.1 4.9 32 8.8 NW 6 11 3 6 - - 0.0
04/02:00pm 21.9 19.6 5.8 35 8.2 NW 7 15 4 8 - - 0.0
04/01:30pm 21.9 19.8 6.6 37 7.9 NW 7 13 4 7 - - 0.0
04/01:00pm 21.1 18.5 5.9 37 7.7 NNW 9 19 5 10 - - 0.0
04/12:30pm 20.6 18.6 6.9 41 7.1 NW 7 15 4 8 - - 0.0
04/12:00pm 19.8 17.7 6.5 42 6.8 NW 7 17 4 9 - - 0.0
04/11:30am 19.4 17.4 7.2 45 6.3 WNW 7 19 4 10 - - 0.0
04/11:00am 19.5 17.9 7.9 47 6.1 NW 6 13 3 7 - - 0.0
04/10:30am 17.7 15.7 7.2 50 5.3 W 7 15 4 8 - - 0.0
04/10:00am 17.2 15.4 7.3 52 5.0 WSW 6 9 3 5 - - 0.0
04/09:30am 16.8 14.4 7.2 53 4.9 WNW 9 19 5 10 - - 0.0
04/09:00am 16.2 14.4 7.9 58 4.2 WNW 7 13 4 7 - - 0.0
04/08:30am 14.9 13.0 7.7 62 3.6 WNW 7 13 4 7 - - 0.0
04/08:00am 13.5 11.9 7.9 69 2.8 NW 6 9 3 5 - - 0.0
04/07:30am 11.8 10.2 8.6 81 1.6 NW 7 9 4 5 - - 0.0
04/07:00am 8.6 6.9 7.7 94 0.4 WNW 6 7 3 4 - - 0.0
04/06:30am 6.3 4.5 5.3 93 0.4 WNW 4 7 2 4 - - 0.0
04/06:00am 6.3 4.4 5.1 92 0.5 NW 4 6 2 3 - - 0.0
04/05:30am 6.1 4.2 4.9 92 0.5 W 4 6 2 3 - - 0.0
04/05:00am 6.6 5.5 5.2 91 0.6 CALM 0 4 0 2 - - 0.0
04/04:30am 6.7 5.6 5.2 90 0.7 CALM 0 2 0 1 - - 0.0
04/04:00am 7.3 5.9 5.6 89 0.8 W 2 4 1 2 - - 0.0
04/03:30am 7.1 6.0 5.1 87 0.9 CALM 0 0 0 0 - - 0.0
04/03:00am 7.6 6.6 5.6 87 0.9 CALM 0 4 0 2 - - 0.0
04/02:30am 8.1 6.7 5.4 83 1.2 W 2 4 1 2 - - 0.0
04/02:00am 9.3 7.9 5.5 77 1.8 W 2 4 1 2 - - 0.0
04/01:30am 11.2 9.2 6.3 72 2.3 WNW 6 11 3 6 - - 0.0
04/01:00am 12.1 10.1 6.4 68 2.7 W 6 9 3 5 - - 0.0
04/12:30am 13.0 11.1 6.6 65 3.1 W 6 13 3 7 - - 0.0
04/12:00am 13.8 11.3 6.7 62 3.5 W 9 17 5 9 - - 0.0
 
Date/Time
EST
Temp
°C
App
Temp
°C
Dew
Point
°C
Rel
Hum
%
Delta-T
°C
Wind Press
QNH
hPa
Press
MSL
hPa
Rain since
9am
mm
Dir  Spd
km/h
Gust
km/h
Spd
kts
Gust
kts
03/11:30pm 14.5 11.2 6.6 59 3.9 W 13 20 7 11 - - 0.0
03/11:00pm 14.8 11.4 6.1 56 4.2 W 13 22 7 12 - - 0.0
03/10:30pm 15.2 12.2 6.0 54 4.5 W 11 20 6 11 - - 0.0
03/10:00pm 14.7 12.0 5.8 55 4.3 W 9 13 5 7 - - 0.0
03/09:30pm 15.3 12.6 5.5 52 4.7 WNW 9 15 5 8 - - 0.0
03/09:00pm 15.6 14.0 4.3 47 5.3 W 2 9 1 5 - - 0.0
03/08:30pm 16.2 13.3 4.6 46 5.5 WNW 9 17 5 9 - - 0.0
03/08:00pm 16.3 13.8 4.0 44 5.8 WNW 6 9 3 5 - - 0.0
03/07:30pm 17.7 15.0 3.9 40 6.6 WNW 7 19 4 10 - - 0.0
03/07:00pm 15.8 13.6 5.4 50 5.0 WNW 6 11 3 6 - - 0.0
03/06:30pm 17.3 15.1 5.3 45 5.9 WNW 6 11 3 6 - - 0.0
03/06:00pm 17.2 15.1 5.8 47 5.6 W 6 9 3 5 - - 0.0
03/05:30pm 19.8 17.7 5.8 40 7.0 W 6 11 3 6 - - 0.0
03/05:00pm 21.8 19.2 6.1 36 8.0 W 9 17 5 9 - - 0.0
03/04:30pm 23.0 20.4 6.3 34 8.6 W 9 17 5 9 - - 0.0
03/04:00pm 24.1 20.8 6.4 32 9.2 W 13 24 7 13 - - 0.0
03/03:30pm 24.3 20.8 7.0 33 9.1 W 15 28 8 15 - - 0.0
03/03:00pm 25.0 21.8 6.7 31 9.7 W 13 24 7 13 - - 0.0
03/02:30pm 24.9 21.3 6.6 31 9.6 W 15 30 8 16 - - 0.0
03/02:00pm 24.7 19.6 6.0 30 9.7 W 22 37 12 20 - - 0.0
03/01:30pm 25.0 20.6 6.7 31 9.7 WNW 19 35 10 19 - - 0.0
03/01:00pm 25.2 20.7 6.9 31 9.7 W 20 41 11 22 - - 0.0
03/12:30pm 26.1 22.9 8.6 33 9.6 WSW 15 32 8 17 - - 0.0
03/12:00pm 25.6 21.5 6.3 29 10.1 W 17 32 9 17 - - 0.0
03/11:30am 25.5 20.9 6.7 30 10.0 WNW 20 43 11 23 - - 0.0
03/11:00am 25.9 23.2 10.5 38 8.7 WNW 15 32 8 17 - - 0.0
03/10:30am 25.3 21.6 9.6 37 8.7 WNW 19 37 10 20 - - 0.0
03/10:00am 24.6 20.6 9.0 37 8.6 WNW 20 39 11 21 - - 0.0
03/09:30am 24.0 21.1 9.6 40 8.0 WNW 15 30 8 16 - - 0.0
03/09:00am 23.1 20.6 9.8 43 7.3 WNW 13 24 7 13 - - 0.0
03/08:30am 21.8 19.1 9.0 44 6.9 NW 13 22 7 12 - - 0.0
03/08:00am 20.6 17.9 8.9 47 6.3 NW 13 26 7 14 - - 0.0
03/07:30am 19.1 17.1 8.7 51 5.5 NNW 9 19 5 10 - - 0.0
03/07:00am 17.8 15.7 8.4 54 4.9 NNW 9 17 5 9 - - 0.0
03/06:30am 17.3 16.0 7.6 53 5.0 N 4 9 2 5 - - 0.0
03/06:00am 17.3 15.6 7.6 53 5.0 NNW 6 11 3 6 - - 0.0
03/05:30am 17.6 15.9 7.6 52 5.1 WNW 6 11 3 6 - - 0.0
03/05:00am 18.3 16.1 7.7 50 5.5 NNW 9 26 5 14 - - 0.0
03/04:30am 17.8 16.0 8.1 53 5.0 NNW 7 11 4 6 - - 0.0
03/04:00am 17.6 15.9 8.2 54 4.9 NNW 7 17 4 9 - - 0.0
03/03:30am 17.4 15.9 8.3 55 4.7 NNW 6 9 3 5 - - 0.0
03/03:00am 17.5 15.8 8.4 55 4.7 NW 7 13 4 7 - - 0.0
03/02:30am 18.1 16.3 8.1 52 5.2 NW 7 15 4 8 - - 0.0
03/02:00am 18.5 16.9 8.2 51 5.4 NW 6 13 3 7 - - 0.0
03/01:30am 18.5 16.8 8.5 52 5.2 NNW 7 13 4 7 - - 0.0
03/01:00am 18.6 16.4 8.0 50 5.5 NW 9 15 5 8 - - 0.0
03/12:30am 18.1 16.3 8.1 52 5.2 NW 7 13 4 7 - - 0.0
03/12:00am 17.2 15.4 8.1 55 4.7 NW 7 13 4 7 - - 0.0
 
Date/Time
EST
Temp
°C
App
Temp
°C
Dew
Point
°C
Rel
Hum
%
Delta-T
°C
Wind Press
QNH
hPa
Press
MSL
hPa
Rain since
9am
mm
Dir  Spd
km/h
Gust
km/h
Spd
kts
Gust
kts
02/11:30pm 16.6 15.4 8.1 57 4.4 NNW 4 7 2 4 - - 0.0
02/11:00pm 14.8 14.3 7.8 63 3.5 CALM 0 4 0 2 - - 0.0
02/10:30pm 15.2 14.8 8.2 63 3.6 CALM 0 4 0 2 - - 0.0
02/10:00pm 16.1 15.3 8.3 60 4.0 NW 2 7 1 4 - - 0.0
02/09:30pm 15.2 14.4 8.2 63 3.6 NW 2 6 1 3 - - 0.0
02/09:00pm 16.4 16.0 8.1 58 4.3 CALM 0 4 0 2 - - 0.0
02/08:30pm 17.4 16.2 8.0 54 4.9 NW 4 7 2 4 - - 0.0
02/08:00pm 16.8 15.6 8.2 57 4.4 NW 4 7 2 4 - - 0.0
02/07:30pm 16.5 16.0 8.0 57 4.4 CALM 0 4 0 2 - - 0.0
02/07:00pm 16.5 15.7 8.0 57 4.4 WNW 2 6 1 3 - - 0.0
02/06:30pm 17.1 16.6 7.7 54 4.8 CALM 0 2 0 1 - - 0.0

Latest Capital City Observations: Canberra | Sydney | Melbourne | Brisbane | Adelaide | Perth | Hobart | Darwin

Other formats

Comma delimited format used in spreadsheet applications
http://www.bom.gov.au/fwo/IDN60901/IDN60901.95774.axf

JavaScript Object Notation format (JSON) in row-major order
http://www.bom.gov.au/fwo/IDN60901/IDN60901.95774.json

Data quality

Most of these data are generated automatically and are frequently updated. Quality checks on data are not normally performed. It is possible for incorrect values to appear. Refer to information at About Latest Weather Observations and please check the disclaimer before using these data.